createdAt,value
2018-05-10T00:02:05.900Z,5.80
2018-05-10T00:04:33.358Z,6.07
2018-05-10T00:07:00.806Z,5.60
2018-05-10T00:09:28.254Z,5.17
2018-05-10T00:11:55.731Z,5.80
2018-05-10T00:14:23.180Z,4.90
2018-05-10T00:16:51.560Z,5.23
2018-05-10T00:19:18.996Z,5.30
2018-05-10T00:21:46.455Z,5.67
2018-05-10T00:24:13.907Z,5.87
2018-05-10T00:26:41.357Z,4.90
2018-05-10T00:29:08.816Z,5.53
2018-05-10T00:31:36.270Z,5.40
2018-05-10T00:34:03.720Z,5.27
2018-05-10T00:36:31.261Z,6.10
2018-05-10T00:38:58.703Z,5.50
2018-05-10T00:41:26.147Z,5.50
2018-05-10T00:43:53.599Z,4.77
2018-05-10T00:46:21.055Z,5.20
2018-05-10T00:48:48.522Z,5.20
2018-05-10T00:51:15.960Z,5.57
2018-05-10T00:53:43.434Z,5.33
2018-05-10T00:56:10.875Z,5.70
2018-05-10T00:58:38.337Z,5.97
2018-05-10T01:01:05.798Z,5.80
2018-05-10T01:03:34.015Z,5.73
2018-05-10T01:06:01.467Z,5.87
2018-05-10T01:08:29.694Z,5.50
2018-05-10T01:10:57.149Z,5.40
2018-05-10T01:13:24.604Z,5.20
2018-05-10T01:15:52.058Z,5.77
2018-05-10T01:18:19.509Z,5.57
2018-05-10T01:20:46.963Z,6.00
2018-05-10T01:23:14.417Z,5.20
2018-05-10T01:25:41.884Z,5.80
2018-05-10T01:28:09.339Z,5.60
2018-05-10T01:30:36.791Z,5.53
2018-05-10T01:33:04.240Z,6.90
2018-05-10T01:35:43.385Z,4.73
2018-05-10T01:38:10.823Z,5.37
2018-05-10T01:40:38.305Z,5.90
2018-05-10T01:43:05.760Z,5.57
2018-05-10T01:45:33.219Z,5.80
2018-05-10T01:48:00.674Z,6.30
2018-05-10T01:50:28.138Z,5.97
2018-05-10T01:52:55.596Z,6.20
2018-05-10T01:55:23.052Z,5.63
2018-05-10T01:57:50.508Z,5.90
2018-05-10T02:00:17.948Z,5.60
2018-05-10T02:02:45.410Z,5.63
2018-05-10T02:05:12.853Z,5.53
2018-05-10T02:07:40.312Z,5.57
2018-05-10T02:10:07.771Z,5.83
2018-05-10T02:12:35.232Z,5.37
2018-05-10T02:15:02.677Z,5.70
2018-05-10T02:17:30.144Z,5.03
2018-05-10T02:19:57.594Z,5.53
2018-05-10T02:22:28.257Z,4.77
2018-05-10T02:24:55.701Z,5.50
2018-05-10T02:27:23.147Z,5.47
2018-05-10T02:29:50.621Z,5.07
2018-05-10T02:32:18.089Z,4.43
2018-05-10T02:34:45.553Z,5.03
2018-05-10T02:37:13.016Z,5.10
2018-05-10T02:39:41.264Z,4.97
2018-05-10T02:42:08.715Z,5.97
2018-05-10T02:44:36.175Z,6.30
2018-05-10T02:47:03.640Z,5.20
2018-05-10T02:49:31.091Z,5.93
2018-05-10T02:51:58.544Z,5.87
2018-05-10T02:54:26.013Z,5.60
2018-05-10T02:56:53.460Z,5.40
2018-05-10T02:59:20.921Z,4.90
2018-05-10T03:01:48.376Z,5.90
2018-05-10T03:04:15.841Z,5.77
2018-05-10T03:06:43.293Z,5.60
2018-05-10T03:09:10.739Z,5.70
2018-05-10T03:11:38.192Z,5.13
2018-05-10T03:14:05.663Z,6.13
2018-05-10T03:16:33.103Z,4.90
2018-05-10T03:19:00.555Z,5.57
2018-05-10T03:21:28.000Z,6.20
2018-05-10T03:23:55.457Z,5.70
2018-05-10T03:26:22.907Z,5.90
2018-05-10T03:28:50.364Z,6.10
2018-05-10T03:31:17.816Z,5.83
2018-05-10T03:33:45.270Z,6.13
2018-05-10T03:36:12.715Z,6.40
2018-05-10T03:38:40.163Z,6.33
2018-05-10T03:41:07.627Z,5.83
2018-05-10T03:43:35.092Z,5.20
2018-05-10T03:46:02.557Z,6.00
2018-05-10T03:48:30.012Z,5.33
2018-05-10T03:50:57.499Z,5.93
2018-05-10T03:53:24.936Z,6.43
2018-05-10T03:55:52.415Z,5.60
2018-05-10T03:58:19.862Z,5.17
2018-05-10T04:00:47.316Z,5.03
2018-05-10T04:06:39.459Z,5.30
2018-05-10T04:09:18.777Z,5.30
2018-05-10T04:11:46.220Z,5.33
2018-05-10T04:14:14.440Z,5.57
2018-05-10T04:16:41.891Z,4.97
2018-05-10T04:19:09.342Z,5.17
2018-05-10T04:21:36.799Z,5.37
2018-05-10T04:24:04.242Z,4.83
2018-05-10T04:26:31.705Z,5.50
2018-05-10T04:28:59.160Z,5.50
2018-05-10T04:31:26.616Z,5.57
2018-05-10T04:33:54.063Z,5.27
2018-05-10T04:36:21.526Z,5.33
2018-05-10T04:38:48.962Z,4.70
2018-05-10T04:41:17.204Z,5.33
2018-05-10T04:43:44.642Z,5.10
2018-05-10T04:46:12.100Z,5.20
2018-05-10T04:48:39.560Z,5.80
2018-05-10T04:51:07.005Z,5.27
2018-05-10T04:53:34.454Z,4.97
2018-05-10T04:56:01.969Z,4.37
2018-05-10T04:58:29.363Z,4.73
2018-05-10T05:00:56.827Z,4.93
2018-05-10T05:03:24.281Z,4.93
2018-05-10T05:05:51.733Z,4.80
2018-05-10T05:08:19.178Z,5.80
2018-05-10T05:10:46.669Z,6.00
2018-05-10T05:13:14.067Z,4.57
2018-05-10T05:15:42.296Z,5.07
2018-05-10T05:18:09.755Z,4.47
2018-05-10T05:20:37.208Z,4.30
2018-05-10T05:23:04.659Z,3.80
2018-05-10T05:25:32.109Z,4.70
2018-05-10T05:27:59.550Z,4.90
2018-05-10T05:30:26.999Z,3.90
2018-05-10T05:32:54.439Z,4.60
2018-05-10T05:35:22.660Z,4.67
2018-05-10T05:37:50.119Z,4.20
2018-05-10T05:40:17.563Z,5.87
2018-05-10T05:42:45.016Z,4.30
2018-05-10T05:45:12.474Z,4.97
2018-05-10T05:47:40.344Z,5.00
2018-05-10T05:50:07.791Z,4.77
2018-05-10T05:52:35.236Z,3.60
2018-05-10T05:55:02.747Z,3.80
2018-05-10T05:57:30.906Z,4.50
2018-05-10T05:59:58.348Z,4.40
2018-05-10T06:02:25.808Z,4.47
2018-05-10T06:04:53.257Z,3.90
2018-05-10T06:07:20.713Z,3.93
2018-05-10T06:09:48.154Z,3.60
2018-05-10T06:12:15.605Z,3.53
2018-05-10T06:14:43.831Z,3.43
2018-05-10T06:17:11.279Z,3.30
2018-05-10T06:19:38.728Z,2.73
2018-05-10T06:22:06.195Z,2.90
2018-05-10T06:24:33.648Z,2.67
2018-05-10T06:27:01.112Z,2.73
2018-05-10T06:29:28.567Z,2.73
2018-05-10T06:31:56.026Z,2.77
2018-05-10T06:34:23.474Z,2.20
2018-05-10T06:36:50.916Z,2.40
2018-05-10T06:39:18.361Z,2.90
2018-05-10T06:41:45.804Z,2.97
2018-05-10T06:44:13.250Z,2.63
2018-05-10T06:46:41.468Z,2.00
2018-05-10T06:49:08.921Z,2.50
2018-05-10T06:51:36.381Z,2.93
2018-05-10T06:54:03.826Z,1.80
2018-05-10T06:56:31.273Z,1.90
2018-05-10T06:58:58.729Z,2.33
2018-05-10T07:01:26.188Z,1.60
2018-05-10T07:03:53.636Z,1.90
2018-05-10T07:06:21.088Z,2.43
2018-05-10T07:08:49.293Z,2.83
2018-05-10T07:11:16.754Z,2.20
2018-05-10T07:13:44.195Z,3.53
2018-05-10T07:16:11.640Z,3.00
2018-05-10T07:18:39.108Z,2.40
2018-05-10T07:21:06.548Z,2.97
2018-05-10T07:23:33.992Z,3.27
2018-05-10T07:26:02.211Z,3.40
2018-05-10T07:28:29.658Z,2.57
2018-05-10T07:30:57.112Z,2.87
2018-05-10T07:33:24.560Z,2.50
2018-05-10T07:35:52.013Z,3.07
2018-05-10T07:38:19.459Z,2.50
2018-05-10T07:40:46.909Z,3.07
2018-05-10T07:43:15.115Z,2.93
2018-05-10T07:45:43.077Z,2.63
2018-05-10T07:48:10.532Z,2.50
2018-05-10T07:50:37.986Z,2.30
2018-05-10T07:53:05.472Z,2.83
2018-05-10T07:55:32.896Z,3.20
2018-05-10T07:58:00.356Z,3.10
2018-05-10T08:00:27.806Z,2.80
2018-05-10T08:02:55.256Z,3.17
2018-05-10T08:05:29.247Z,2.63
2018-05-10T08:07:57.481Z,2.70
2018-05-10T08:10:24.923Z,3.37
2018-05-10T08:12:52.386Z,3.10
2018-05-10T08:15:23.305Z,2.33
2018-05-10T08:17:50.782Z,2.40
2018-05-10T08:20:18.239Z,2.87
2018-05-10T08:22:45.702Z,2.70
2018-05-10T08:25:13.143Z,2.40
2018-05-10T08:27:46.476Z,2.77
2018-05-10T08:30:14.015Z,2.63
2018-05-10T08:32:41.390Z,2.13
2018-05-10T08:35:08.831Z,2.27
2018-05-10T08:37:36.305Z,2.27
2018-05-10T08:40:03.756Z,2.80
2018-05-10T08:42:31.213Z,2.10
2018-05-10T08:44:58.714Z,2.60
2018-05-10T08:47:26.116Z,2.30
2018-05-10T08:49:53.563Z,2.73
2018-05-10T08:52:21.016Z,2.33
2018-05-10T08:54:48.475Z,2.20
2018-05-10T08:57:15.916Z,2.43
2018-05-10T08:59:43.361Z,2.50
2018-05-10T09:02:10.819Z,2.33
2018-05-10T09:04:38.269Z,2.80
2018-05-10T09:07:05.723Z,2.20
2018-05-10T09:09:33.172Z,2.10
2018-05-10T09:12:01.402Z,2.17
2018-05-10T09:14:28.854Z,2.33
2018-05-10T09:16:56.303Z,2.00
2018-05-10T09:19:23.800Z,2.43
2018-05-10T09:21:51.273Z,2.57
2018-05-10T09:24:18.724Z,2.60
2018-05-10T09:26:46.945Z,2.07
2018-05-10T09:29:14.388Z,1.97
2018-05-10T09:31:41.828Z,2.50
2018-05-10T09:34:09.277Z,2.50
2018-05-10T09:36:36.733Z,3.50
2018-05-10T09:39:04.960Z,2.20
2018-05-10T09:41:32.414Z,2.60
2018-05-10T09:43:59.865Z,2.20
2018-05-10T09:46:27.303Z,2.50
2018-05-10T09:48:54.748Z,2.60
2018-05-10T09:51:22.204Z,3.07
2018-05-10T09:53:49.647Z,2.90
2018-05-10T09:56:17.091Z,3.33
2018-05-10T09:58:45.313Z,2.60
2018-05-10T10:01:12.760Z,2.23
2018-05-10T10:03:40.232Z,2.30
2018-05-10T10:06:07.694Z,1.70
2018-05-10T10:08:35.139Z,1.70
2018-05-10T10:11:02.605Z,1.80
2018-05-10T10:13:30.059Z,1.80
2018-05-10T10:15:57.895Z,2.00
2018-05-10T10:18:25.368Z,1.70
2018-05-10T10:21:02.696Z,2.10
2018-05-10T10:23:30.160Z,2.20
2018-05-10T10:25:57.604Z,2.17
2018-05-10T10:28:25.064Z,2.30
2018-05-10T10:30:52.512Z,2.70
2018-05-10T10:33:19.968Z,2.60
2018-05-10T10:35:47.413Z,2.33
2018-05-10T10:38:14.959Z,2.13
2018-05-10T10:40:42.327Z,1.90
2018-05-10T10:43:09.773Z,2.50
2018-05-10T10:45:37.227Z,2.00
2018-05-10T10:48:04.692Z,2.60
2018-05-10T10:50:32.144Z,2.40
2018-05-10T10:52:59.617Z,2.27
2018-05-10T10:55:27.056Z,3.07
2018-05-10T10:57:54.511Z,2.17
2018-05-10T11:00:21.961Z,2.30
2018-05-10T11:02:49.433Z,2.40
2018-05-10T11:05:16.872Z,1.93
2018-05-10T11:07:44.320Z,2.20
2018-05-10T11:10:11.777Z,2.67
2018-05-10T11:12:39.225Z,2.10
2018-05-10T11:15:06.689Z,1.70
2018-05-10T11:17:34.127Z,2.10
2018-05-10T11:20:02.335Z,1.60
2018-05-10T11:22:29.841Z,2.33
2018-05-10T11:24:57.233Z,2.33
2018-05-10T11:27:24.725Z,2.27
2018-05-10T11:29:52.115Z,3.30
2018-05-10T11:32:20.347Z,2.00
2018-05-10T11:34:47.800Z,2.57
2018-05-10T11:37:15.248Z,2.33
2018-05-10T11:39:42.692Z,2.10
2018-05-10T11:42:10.144Z,2.47
2018-05-10T11:44:37.599Z,2.30
2018-05-10T11:47:05.058Z,2.37
2018-05-10T11:49:32.511Z,2.43
2018-05-10T11:51:59.958Z,2.60
2018-05-10T11:54:27.403Z,2.53
2018-05-10T11:56:55.619Z,2.13
2018-05-10T11:59:23.072Z,2.70
2018-05-10T12:01:53.523Z,2.33
2018-05-10T12:04:20.981Z,2.37
2018-05-10T12:06:48.684Z,2.23
2018-05-10T12:09:16.996Z,2.30
2018-05-10T12:11:44.369Z,2.80
2018-05-10T12:14:11.828Z,2.50
2018-05-10T12:16:39.287Z,2.30
2018-05-10T12:19:06.773Z,2.80
2018-05-10T12:21:34.223Z,2.70
2018-05-10T12:24:01.655Z,2.50
2018-05-10T12:26:29.106Z,3.13
2018-05-10T12:28:56.549Z,2.90
2018-05-10T12:31:24.001Z,3.37
2018-05-10T12:33:51.451Z,2.97
2018-05-10T12:36:18.890Z,3.33
2018-05-10T12:38:46.345Z,3.20
2018-05-10T12:41:14.559Z,2.67
2018-05-10T12:43:42.011Z,2.73
2018-05-10T12:46:09.460Z,2.87
2018-05-10T12:48:36.906Z,3.23
2018-05-10T12:51:04.366Z,2.67
2018-05-10T12:53:31.803Z,2.60
2018-05-10T12:55:59.268Z,2.43
2018-05-10T12:58:27.472Z,2.37
2018-05-10T13:00:54.917Z,2.20
2018-05-10T13:03:22.372Z,2.83
2018-05-10T13:05:49.815Z,2.27
2018-05-10T13:08:17.306Z,2.10
2018-05-10T13:10:45.476Z,2.40
2018-05-10T13:13:12.933Z,2.30
2018-05-10T13:15:40.393Z,2.17
2018-05-10T13:18:07.848Z,2.30
2018-05-10T13:20:35.304Z,2.73
2018-05-10T13:23:02.746Z,2.30
2018-05-10T13:25:30.204Z,1.90
2018-05-10T13:27:58.125Z,2.00
2018-05-10T13:30:26.360Z,1.90
2018-05-10T13:32:53.811Z,2.70
2018-05-10T13:35:21.270Z,2.50
2018-05-10T13:37:48.727Z,2.10
2018-05-10T13:40:16.179Z,2.60
2018-05-10T13:42:43.623Z,2.37
2018-05-10T13:45:11.088Z,1.87
2018-05-10T13:47:38.541Z,2.23
2018-05-10T13:50:05.990Z,1.80
2018-05-10T13:52:33.444Z,2.20
2018-05-10T13:55:00.910Z,2.17
2018-05-10T13:57:28.367Z,2.50
2018-05-10T13:59:55.861Z,2.13
2018-05-10T14:02:23.311Z,2.17
2018-05-10T14:04:50.772Z,1.90
2018-05-10T14:07:18.227Z,2.60
2018-05-10T14:09:45.686Z,2.10
2018-05-10T14:12:13.131Z,2.20
2018-05-10T14:14:41.358Z,2.07
2018-05-10T14:17:09.574Z,1.70
2018-05-10T14:19:37.018Z,1.83
2018-05-10T14:22:04.496Z,2.20
2018-05-10T14:24:31.923Z,2.27
2018-05-10T14:26:59.375Z,1.63
2018-05-10T14:29:26.824Z,2.23
2018-05-10T14:31:54.268Z,1.70
2018-05-10T14:34:21.719Z,1.63
2018-05-10T14:36:49.193Z,1.73
2018-05-10T14:39:16.631Z,1.40
2018-05-10T14:41:44.844Z,1.90
2018-05-10T14:44:12.303Z,2.00
2018-05-10T14:46:39.833Z,1.60
2018-05-10T14:49:07.209Z,1.90
2018-05-10T14:51:34.643Z,2.07
2018-05-10T14:54:02.131Z,1.97
2018-05-10T14:56:30.310Z,2.30
2018-05-10T14:58:57.780Z,2.20
2018-05-10T15:01:25.228Z,2.20
2018-05-10T15:03:52.758Z,2.20
2018-05-10T15:06:20.208Z,1.97
2018-05-10T15:08:47.660Z,1.90
2018-05-10T15:11:15.108Z,2.73
2018-05-10T15:13:43.325Z,2.20
2018-05-10T15:16:10.780Z,2.30
2018-05-10T15:18:38.236Z,2.60
2018-05-10T15:21:05.688Z,2.90
2018-05-10T15:23:33.215Z,2.43
2018-05-10T15:26:00.627Z,2.83
2018-05-10T15:28:28.071Z,4.13
2018-05-10T15:30:55.532Z,3.10
2018-05-10T15:33:22.992Z,3.17
2018-05-10T15:35:50.448Z,3.10
2018-05-10T15:38:17.896Z,3.00
2018-05-10T15:40:45.351Z,3.40
2018-05-10T15:43:12.802Z,2.67
2018-05-10T15:45:40.251Z,2.80
2018-05-10T15:48:07.783Z,2.57
2018-05-10T15:50:35.318Z,2.80
2018-05-10T15:53:03.635Z,3.07
2018-05-10T15:55:31.163Z,2.20
2018-05-10T15:57:59.398Z,2.70
2018-05-10T16:00:26.938Z,2.63
2018-05-10T16:02:54.489Z,2.60
2018-05-10T16:05:21.987Z,1.97
2018-05-10T16:07:49.484Z,2.07
2018-05-10T16:10:16.993Z,2.17
2018-05-10T16:12:44.552Z,1.70
2018-05-10T16:15:12.426Z,2.20
2018-05-10T16:17:39.985Z,2.00
2018-05-10T16:20:07.512Z,2.37
2018-05-10T16:22:35.049Z,2.00
2018-05-10T16:25:02.577Z,2.47
2018-05-10T16:27:30.853Z,1.80
2018-05-10T16:29:58.405Z,2.33
2018-05-10T16:32:25.913Z,2.20
2018-05-10T16:34:53.406Z,2.67
2018-05-10T16:37:20.946Z,1.80
2018-05-10T16:39:48.454Z,2.00
2018-05-10T16:42:16.746Z,2.13
2018-05-10T16:44:44.276Z,2.63
2018-05-10T16:47:11.830Z,1.73
2018-05-10T16:49:40.122Z,1.93
2018-05-10T16:52:08.425Z,2.03
2018-05-10T16:54:35.926Z,2.10
2018-05-10T16:57:03.463Z,1.90
2018-05-10T16:59:30.986Z,2.30
2018-05-10T17:01:58.511Z,2.10
2018-05-10T17:04:26.026Z,1.40
2018-05-10T17:06:53.537Z,1.70
2018-05-10T17:09:21.846Z,1.50
2018-05-10T17:11:49.410Z,1.57
2018-05-10T17:14:16.891Z,1.60
2018-05-10T17:16:44.454Z,1.80
2018-05-10T17:19:11.969Z,1.47
2018-05-10T17:21:40.259Z,1.67
2018-05-10T17:24:07.791Z,1.40
2018-05-10T17:26:36.089Z,1.23
2018-05-10T17:29:03.646Z,1.27
2018-05-10T17:31:31.169Z,1.00
2018-05-10T17:33:59.505Z,1.60
2018-05-10T17:36:27.025Z,1.13
2018-05-10T17:38:55.323Z,1.50
2018-05-10T17:41:22.820Z,1.70
2018-05-10T17:43:50.362Z,1.10
2018-05-10T17:46:17.894Z,1.53
2018-05-10T17:48:45.380Z,1.30
2018-05-10T17:51:12.949Z,1.23
2018-05-10T17:53:40.455Z,0.90
2018-05-10T17:56:09.912Z,1.00
2018-05-10T17:58:37.438Z,1.13
2018-05-10T18:01:04.970Z,0.90
2018-05-10T18:03:33.350Z,1.00
2018-05-10T18:06:00.813Z,0.90
2018-05-10T18:08:28.306Z,1.20
2018-05-10T18:10:55.872Z,1.03
2018-05-10T18:13:23.372Z,1.00
2018-05-10T18:15:50.911Z,1.10
2018-05-10T18:18:18.459Z,1.00
2018-05-10T18:20:46.002Z,1.00
2018-05-10T18:23:13.556Z,1.17
2018-05-10T18:25:41.072Z,1.43
2018-05-10T18:28:09.321Z,1.50
2018-05-10T18:30:36.846Z,1.40
2018-05-10T18:33:04.364Z,1.10
2018-05-10T18:35:31.872Z,1.17
2018-05-10T18:37:59.430Z,1.43
2018-05-10T18:40:26.946Z,1.73
2018-05-10T18:42:54.513Z,1.30
2018-05-10T18:45:22.039Z,1.30
2018-05-10T18:47:50.320Z,1.53
2018-05-10T18:50:17.844Z,1.30
2018-05-10T18:52:45.369Z,1.47
2018-05-10T18:55:12.856Z,1.40
2018-05-10T18:57:40.375Z,1.60
2018-05-10T19:00:07.937Z,2.07
2018-05-10T19:02:35.424Z,1.30
2018-05-10T19:05:02.942Z,1.30
2018-05-10T19:07:30.618Z,1.30
2018-05-10T19:09:58.814Z,1.33
2018-05-10T19:12:26.355Z,1.10
2018-05-10T19:14:53.882Z,1.00
2018-05-10T19:17:22.167Z,1.10
2018-05-10T19:19:50.462Z,1.03
2018-05-10T19:22:18.042Z,1.10
2018-05-10T19:24:45.557Z,0.90
2018-05-10T19:27:13.834Z,1.10
2018-05-10T19:29:41.370Z,1.40
2018-05-10T19:32:08.904Z,1.40
2018-05-10T19:34:36.457Z,1.30
2018-05-10T19:37:04.020Z,1.50
2018-05-10T19:39:31.537Z,1.70
2018-05-10T19:41:59.097Z,1.50
2018-05-10T19:44:26.656Z,2.07
2018-05-10T19:46:54.166Z,1.63
2018-05-10T19:49:21.709Z,1.60
2018-05-10T19:51:49.252Z,3.00
2018-05-10T19:54:16.740Z,2.50
2018-05-10T19:56:44.347Z,2.50
2018-05-10T19:59:11.833Z,2.70
2018-05-10T20:01:39.330Z,3.20
2018-05-10T20:04:08.097Z,2.93
2018-05-10T20:06:35.599Z,2.40
2018-05-10T20:09:03.907Z,2.80
2018-05-10T20:11:31.414Z,2.47
2018-05-10T20:13:58.900Z,3.00
2018-05-10T20:16:26.467Z,4.03
2018-05-10T20:18:54.021Z,3.90
2018-05-10T20:21:21.559Z,3.90
2018-05-10T20:23:49.851Z,3.60
2018-05-10T20:26:17.339Z,4.03
2018-05-10T20:28:44.857Z,4.40
2018-05-10T20:31:13.144Z,5.67
2018-05-10T20:33:40.663Z,4.90
2018-05-10T20:36:08.191Z,4.83
2018-05-10T20:38:35.689Z,5.10
2018-05-10T20:41:03.236Z,5.23
2018-05-10T20:43:30.766Z,5.10
2018-05-10T20:45:58.290Z,4.73
2018-05-10T20:48:26.587Z,5.80
2018-05-10T20:50:54.110Z,6.20
2018-05-10T20:53:22.412Z,5.60
2018-05-10T20:55:50.001Z,3.90
2018-05-10T20:58:17.421Z,6.23
2018-05-10T21:00:45.707Z,5.40
2018-05-10T21:03:13.221Z,4.90
2018-05-10T21:05:41.504Z,5.20
2018-05-10T21:08:09.050Z,5.60
2018-05-10T21:10:36.606Z,6.00
2018-05-10T21:13:04.144Z,4.80
2018-05-10T21:15:31.688Z,4.53
2018-05-10T21:17:59.182Z,4.63
2018-05-10T21:20:26.784Z,4.70
2018-05-10T21:22:54.333Z,4.93
2018-05-10T21:25:21.853Z,4.50
2018-05-10T21:27:49.432Z,3.77
2018-05-10T21:30:16.953Z,3.83
2018-05-10T21:32:44.437Z,4.27
2018-05-10T21:35:11.957Z,4.10
2018-05-10T21:37:39.477Z,4.03
2018-05-10T21:40:07.750Z,4.50
2018-05-10T21:42:36.039Z,3.60
2018-05-10T21:45:04.327Z,3.77
2018-05-10T21:47:32.629Z,4.60
2018-05-10T21:50:05.768Z,4.20
2018-05-10T21:52:34.063Z,3.37
2018-05-10T21:55:01.612Z,4.03
2018-05-10T21:57:29.125Z,3.23
2018-05-10T21:59:56.659Z,4.20
2018-05-10T22:02:24.165Z,3.97
2018-05-10T22:04:51.672Z,4.37
2018-05-10T22:07:19.202Z,4.10
2018-05-10T22:09:47.486Z,4.07
2018-05-10T22:12:15.040Z,4.50
2018-05-10T22:14:42.554Z,3.90
2018-05-10T22:17:10.066Z,3.63
2018-05-10T22:19:38.330Z,3.63
2018-05-10T22:22:06.593Z,3.57
2018-05-10T22:24:34.939Z,3.70
2018-05-10T22:27:02.415Z,4.20
2018-05-10T22:29:29.950Z,4.10
2018-05-10T22:31:57.473Z,4.10
2018-05-10T22:34:28.628Z,4.30
2018-05-10T22:36:56.155Z,4.60
2018-05-10T22:39:24.412Z,4.47
2018-05-10T22:41:51.932Z,4.17
2018-05-10T22:44:19.515Z,4.07
2018-05-10T22:46:47.014Z,3.70
2018-05-10T22:49:14.529Z,4.30
2018-05-10T22:51:42.064Z,3.97
2018-05-10T22:54:09.607Z,4.60
2018-05-10T22:56:37.118Z,3.70
2018-05-10T22:59:04.636Z,4.10
2018-05-10T23:01:32.185Z,4.50
2018-05-10T23:03:59.714Z,3.50
2018-05-10T23:06:27.224Z,4.30
2018-05-10T23:08:54.767Z,3.83
2018-05-10T23:11:22.289Z,4.57
2018-05-10T23:13:50.550Z,3.57
2018-05-10T23:16:18.051Z,4.17
2018-05-10T23:18:45.592Z,3.63
2018-05-10T23:21:13.146Z,3.60
2018-05-10T23:23:41.427Z,3.70
2018-05-10T23:26:08.987Z,3.47
2018-05-10T23:28:37.267Z,3.50
2018-05-10T23:31:04.797Z,3.67
2018-05-10T23:33:32.280Z,3.73
2018-05-10T23:35:59.825Z,4.57
2018-05-10T23:38:28.124Z,3.93
2018-05-10T23:40:55.668Z,3.80
2018-05-10T23:43:23.196Z,3.70
2018-05-10T23:45:50.770Z,4.20
2018-05-10T23:48:19.087Z,4.10
2018-05-10T23:50:46.655Z,4.27
2018-05-10T23:53:14.191Z,4.40
2018-05-10T23:55:41.743Z,4.17
2018-05-10T23:58:10.029Z,3.63
